EmailTwitter


Surface observations / United Kingdom / EGHI (03865)

Regions: Quebec | Canada | USA | Europe | France | UK | Elsewhere
Station
Display
Info & Location for EGHI (03865) | Help decoding METAR

Weather Conditions observed on 2017/09/23 at 08:50 UTC at SOUTHAMPTON WX C, UK (EGHI)

Sky conditions: few clouds.

Temperature: 16.0 Celsius.

Dewpoint: 13.0 Celsius.

Relative Humidity: 82%

Winds: South at 9 km/h or 5 knots.

Mean Sea level Pressure: 102.20 kilopascals.

Horizontal visibility: 6.21 statute miles or 9.94 kilometers.

Coded METAR:

EGHI 230850Z 17005KT 130V210 9999 FEW020 16/13 Q1022=